sensor_id;sensor_type;location;lat;lon;timestamp;temperature;humidity
19968;DHT22;10145;49.152;9.282;2023-05-07T00:00:37;12.20;99.90
19968;DHT22;10145;49.152;9.282;2023-05-07T00:03:03;12.20;99.90
19968;DHT22;10145;49.152;9.282;2023-05-07T00:05:28;12.20;99.90
19968;DHT22;10145;49.152;9.282;2023-05-07T00:07:54;12.20;99.90
19968;DHT22;10145;49.152;9.282;2023-05-07T00:10:19;12.10;99.90
19968;DHT22;10145;49.152;9.282;2023-05-07T00:12:45;12.10;99.90
19968;DHT22;10145;49.152;9.282;2023-05-07T00:15:11;12.00;99.90
19968;DHT22;10145;49.152;9.282;2023-05-07T00:17:37;12.00;99.90
19968;DHT22;10145;49.152;9.282;2023-05-07T00:20:03;12.00;99.90
19968;DHT22;10145;49.152;9.282;2023-05-07T00:22:30;12.00;99.90
19968;DHT22;10145;49.152;9.282;2023-05-07T00:24:56;12.00;99.90
19968;DHT22;10145;49.152;9.282;2023-05-07T00:27:22;11.90;99.90
19968;DHT22;10145;49.152;9.282;2023-05-07T00:29:48;11.90;99.90
19968;DHT22;10145;49.152;9.282;2023-05-07T00:32:14;11.80;99.90
19968;DHT22;10145;49.152;9.282;2023-05-07T00:34:40;11.80;99.90
19968;DHT22;10145;49.152;9.282;2023-05-07T00:37:05;11.80;99.90
19968;DHT22;10145;49.152;9.282;2023-05-07T00:39:33;11.70;99.90
19968;DHT22;10145;49.152;9.282;2023-05-07T00:41:58;11.70;99.90
19968;DHT22;10145;49.152;9.282;2023-05-07T00:44:24;11.60;99.90
19968;DHT22;10145;49.152;9.282;2023-05-07T00:46:50;11.60;99.90
19968;DHT22;10145;49.152;9.282;2023-05-07T00:49:16;11.60;99.90
19968;DHT22;10145;49.152;9.282;2023-05-07T00:51:42;11.60;99.90
19968;DHT22;10145;49.152;9.282;2023-05-07T00:54:08;11.60;99.90
19968;DHT22;10145;49.152;9.282;2023-05-07T00:56:34;11.60;99.90
19968;DHT22;10145;49.152;9.282;2023-05-07T00:59:01;11.60;99.90
19968;DHT22;10145;49.152;9.282;2023-05-07T01:01:27;11.70;99.90
19968;DHT22;10145;49.152;9.282;2023-05-07T01:03:53;11.70;99.90
19968;DHT22;10145;49.152;9.282;2023-05-07T01:06:19;11.70;99.90
19968;DHT22;10145;49.152;9.282;2023-05-07T01:08:46;11.70;99.90
19968;DHT22;10145;49.152;9.282;2023-05-07T01:11:12;11.70;99.90
19968;DHT22;10145;49.152;9.282;2023-05-07T01:13:39;11.70;99.90
19968;DHT22;10145;49.152;9.282;2023-05-07T01:16:06;11.70;99.90
19968;DHT22;10145;49.152;9.282;2023-05-07T01:18:32;11.70;99.90
19968;DHT22;10145;49.152;9.282;2023-05-07T01:20:58;11.60;99.90
19968;DHT22;10145;49.152;9.282;2023-05-07T01:23:25;11.60;99.90
19968;DHT22;10145;49.152;9.282;2023-05-07T01:25:53;11.50;99.90
19968;DHT22;10145;49.152;9.282;2023-05-07T01:28:19;11.50;99.90
19968;DHT22;10145;49.152;9.282;2023-05-07T01:30:48;11.50;99.90
19968;DHT22;10145;49.152;9.282;2023-05-07T01:33:19;11.40;99.90
19968;DHT22;10145;49.152;9.282;2023-05-07T01:35:48;11.40;99.90
19968;DHT22;10145;49.152;9.282;2023-05-07T01:38:39;11.40;99.90
19968;DHT22;10145;49.152;9.282;2023-05-07T01:41:05;11.40;99.90
19968;DHT22;10145;49.152;9.282;2023-05-07T01:43:30;11.40;99.90
19968;DHT22;10145;49.152;9.282;2023-05-07T01:45:57;11.30;99.90
19968;DHT22;10145;49.152;9.282;2023-05-07T01:48:24;11.40;99.90
19968;DHT22;10145;49.152;9.282;2023-05-07T01:50:50;11.40;99.90
19968;DHT22;10145;49.152;9.282;2023-05-07T01:53:16;11.30;99.90
19968;DHT22;10145;49.152;9.282;2023-05-07T01:55:42;11.30;99.90
19968;DHT22;10145;49.152;9.282;2023-05-07T01:58:07;11.30;99.90
19968;DHT22;10145;49.152;9.282;2023-05-07T02:00:34;11.30;99.90
19968;DHT22;10145;49.152;9.282;2023-05-07T02:02:59;11.30;99.90
19968;DHT22;10145;49.152;9.282;2023-05-07T02:05:25;11.30;99.90
19968;DHT22;10145;49.152;9.282;2023-05-07T02:07:51;11.20;99.90
19968;DHT22;10145;49.152;9.282;2023-05-07T02:10:16;11.30;99.90
19968;DHT22;10145;49.152;9.282;2023-05-07T02:12:42;11.30;99.90
19968;DHT22;10145;49.152;9.282;2023-05-07T02:15:08;11.30;99.90
19968;DHT22;10145;49.152;9.282;2023-05-07T02:17:34;11.30;99.90
19968;DHT22;10145;49.152;9.282;2023-05-07T02:19:59;11.20;99.90
19968;DHT22;10145;49.152;9.282;2023-05-07T02:22:25;11.20;99.90
19968;DHT22;10145;49.152;9.282;2023-05-07T02:24:51;11.20;99.90
19968;DHT22;10145;49.152;9.282;2023-05-07T02:27:16;11.20;99.90
19968;DHT22;10145;49.152;9.282;2023-05-07T02:29:42;11.20;99.90
19968;DHT22;10145;49.152;9.282;2023-05-07T02:32:07;11.20;99.90
19968;DHT22;10145;49.152;9.282;2023-05-07T02:34:33;11.20;99.90
19968;DHT22;10145;49.152;9.282;2023-05-07T02:36:58;11.10;99.90
19968;DHT22;10145;49.152;9.282;2023-05-07T02:39:24;11.10;99.90
19968;DHT22;10145;49.152;9.282;2023-05-07T02:41:49;11.10;99.90
19968;DHT22;10145;49.152;9.282;2023-05-07T02:44:15;11.10;99.90
19968;DHT22;10145;49.152;9.282;2023-05-07T02:46:40;11.00;99.90
19968;DHT22;10145;49.152;9.282;2023-05-07T02:49:06;11.00;99.90
19968;DHT22;10145;49.152;9.282;2023-05-07T02:51:32;11.00;99.90
19968;DHT22;10145;49.152;9.282;2023-05-07T02:53:57;11.00;99.90
19968;DHT22;10145;49.152;9.282;2023-05-07T02:56:23;11.00;99.90
19968;DHT22;10145;49.152;9.282;2023-05-07T02:58:48;10.90;99.90
19968;DHT22;10145;49.152;9.282;2023-05-07T03:01:14;10.90;99.90
19968;DHT22;10145;49.152;9.282;2023-05-07T03:03:40;10.90;99.90
19968;DHT22;10145;49.152;9.282;2023-05-07T03:06:06;10.80;99.90
19968;DHT22;10145;49.152;9.282;2023-05-07T03:08:32;10.80;99.90
19968;DHT22;10145;49.152;9.282;2023-05-07T03:10:58;10.80;99.90
19968;DHT22;10145;49.152;9.282;2023-05-07T03:13:23;10.70;99.90
19968;DHT22;10145;49.152;9.282;2023-05-07T03:15:49;10.80;99.90
19968;DHT22;10145;49.152;9.282;2023-05-07T03:18:14;10.70;99.90
19968;DHT22;10145;49.152;9.282;2023-05-07T03:20:40;10.80;99.90
19968;DHT22;10145;49.152;9.282;2023-05-07T03:23:05;10.70;99.90
19968;DHT22;10145;49.152;9.282;2023-05-07T03:25:32;10.70;99.90
19968;DHT22;10145;49.152;9.282;2023-05-07T03:27:57;10.80;99.90
19968;DHT22;10145;49.152;9.282;2023-05-07T03:30:23;10.70;99.90
19968;DHT22;10145;49.152;9.282;2023-05-07T03:32:49;10.70;99.90
19968;DHT22;10145;49.152;9.282;2023-05-07T03:35:14;10.80;99.90
19968;DHT22;10145;49.152;9.282;2023-05-07T03:37:40;10.80;99.90
19968;DHT22;10145;49.152;9.282;2023-05-07T03:40:06;10.70;99.90
19968;DHT22;10145;49.152;9.282;2023-05-07T03:42:33;10.70;99.90
19968;DHT22;10145;49.152;9.282;2023-05-07T03:44:58;10.70;99.90
19968;DHT22;10145;49.152;9.282;2023-05-07T03:47:24;10.80;99.90
19968;DHT22;10145;49.152;9.282;2023-05-07T03:49:49;10.70;99.90
19968;DHT22;10145;49.152;9.282;2023-05-07T03:52:15;10.70;99.90
19968;DHT22;10145;49.152;9.282;2023-05-07T03:54:41;10.60;99.90
19968;DHT22;10145;49.152;9.282;2023-05-07T03:57:07;10.60;99.90
19968;DHT22;10145;49.152;9.282;2023-05-07T03:59:32;10.70;99.90
19968;DHT22;10145;49.152;9.282;2023-05-07T04:01:58;10.60;99.90
19968;DHT22;10145;49.152;9.282;2023-05-07T04:04:23;10.60;99.90
19968;DHT22;10145;49.152;9.282;2023-05-07T04:06:49;10.60;99.90
19968;DHT22;10145;49.152;9.282;2023-05-07T04:09:14;10.60;99.90
19968;DHT22;10145;49.152;9.282;2023-05-07T04:11:40;10.70;99.90
19968;DHT22;10145;49.152;9.282;2023-05-07T04:14:06;10.70;99.90
19968;DHT22;10145;49.152;9.282;2023-05-07T04:16:31;10.70;99.90
19968;DHT22;10145;49.152;9.282;2023-05-07T04:18:57;10.70;99.90
19968;DHT22;10145;49.152;9.282;2023-05-07T04:21:23;10.70;99.90
19968;DHT22;10145;49.152;9.282;2023-05-07T04:23:48;10.80;99.90
19968;DHT22;10145;49.152;9.282;2023-05-07T04:26:14;10.80;99.90
19968;DHT22;10145;49.152;9.282;2023-05-07T04:28:41;10.90;99.90
19968;DHT22;10145;49.152;9.282;2023-05-07T04:31:06;11.00;99.90
19968;DHT22;10145;49.152;9.282;2023-05-07T04:33:32;11.10;99.90
19968;DHT22;10145;49.152;9.282;2023-05-07T04:36:01;11.10;99.90
19968;DHT22;10145;49.152;9.282;2023-05-07T04:38:31;11.10;99.90
19968;DHT22;10145;49.152;9.282;2023-05-07T04:40:58;11.20;99.90
19968;DHT22;10145;49.152;9.282;2023-05-07T04:43:23;11.30;99.90
19968;DHT22;10145;49.152;9.282;2023-05-07T04:45:52;11.30;99.90
19968;DHT22;10145;49.152;9.282;2023-05-07T04:48:17;11.30;99.90
19968;DHT22;10145;49.152;9.282;2023-05-07T04:50:47;11.30;99.90
19968;DHT22;10145;49.152;9.282;2023-05-07T04:53:13;11.40;99.90
19968;DHT22;10145;49.152;9.282;2023-05-07T04:55:38;11.50;99.90
19968;DHT22;10145;49.152;9.282;2023-05-07T04:58:04;11.50;99.90
19968;DHT22;10145;49.152;9.282;2023-05-07T05:00:30;11.70;99.90
19968;DHT22;10145;49.152;9.282;2023-05-07T05:02:56;11.80;99.90
19968;DHT22;10145;49.152;9.282;2023-05-07T05:05:21;11.90;99.90
19968;DHT22;10145;49.152;9.282;2023-05-07T05:07:47;11.90;99.90
19968;DHT22;10145;49.152;9.282;2023-05-07T05:10:12;12.00;99.90
19968;DHT22;10145;49.152;9.282;2023-05-07T05:12:38;12.10;99.90
19968;DHT22;10145;49.152;9.282;2023-05-07T05:15:04;12.20;99.90
19968;DHT22;10145;49.152;9.282;2023-05-07T05:17:30;12.40;99.90
19968;DHT22;10145;49.152;9.282;2023-05-07T05:19:56;12.50;99.90
19968;DHT22;10145;49.152;9.282;2023-05-07T05:22:21;12.60;99.90
19968;DHT22;10145;49.152;9.282;2023-05-07T05:24:47;12.70;99.90
19968;DHT22;10145;49.152;9.282;2023-05-07T05:27:12;12.90;99.90
19968;DHT22;10145;49.152;9.282;2023-05-07T05:29:38;13.10;99.90
19968;DHT22;10145;49.152;9.282;2023-05-07T05:32:07;13.10;99.90
19968;DHT22;10145;49.152;9.282;2023-05-07T05:34:32;13.20;99.90
19968;DHT22;10145;49.152;9.282;2023-05-07T05:37:01;13.20;99.90
19968;DHT22;10145;49.152;9.282;2023-05-07T05:39:26;13.20;99.90
19968;DHT22;10145;49.152;9.282;2023-05-07T05:41:52;13.20;99.90
19968;DHT22;10145;49.152;9.282;2023-05-07T05:44:17;13.20;99.90
19968;DHT22;10145;49.152;9.282;2023-05-07T05:46:43;13.20;99.90
19968;DHT22;10145;49.152;9.282;2023-05-07T05:49:08;13.30;99.90
19968;DHT22;10145;49.152;9.282;2023-05-07T05:51:34;13.30;99.90
19968;DHT22;10145;49.152;9.282;2023-05-07T05:54:00;13.30;99.90
19968;DHT22;10145;49.152;9.282;2023-05-07T05:56:26;13.40;99.90
19968;DHT22;10145;49.152;9.282;2023-05-07T05:58:51;13.50;99.90
19968;DHT22;10145;49.152;9.282;2023-05-07T06:01:18;13.60;99.90
19968;DHT22;10145;49.152;9.282;2023-05-07T06:03:44;13.70;99.90
19968;DHT22;10145;49.152;9.282;2023-05-07T06:06:09;13.90;99.90
19968;DHT22;10145;49.152;9.282;2023-05-07T06:08:35;14.10;99.90
19968;DHT22;10145;49.152;9.282;2023-05-07T06:11:01;14.20;99.90
19968;DHT22;10145;49.152;9.282;2023-05-07T06:13:27;14.30;99.90
19968;DHT22;10145;49.152;9.282;2023-05-07T06:15:52;14.30;99.90
19968;DHT22;10145;49.152;9.282;2023-05-07T06:18:18;14.40;99.90
19968;DHT22;10145;49.152;9.282;2023-05-07T06:20:43;14.60;99.90
19968;DHT22;10145;49.152;9.282;2023-05-07T06:23:09;14.80;99.90
19968;DHT22;10145;49.152;9.282;2023-05-07T06:25:34;15.00;99.90
19968;DHT22;10145;49.152;9.282;2023-05-07T06:28:00;15.20;99.90
19968;DHT22;10145;49.152;9.282;2023-05-07T06:30:25;15.30;99.90
19968;DHT22;10145;49.152;9.282;2023-05-07T06:32:52;15.60;99.90
19968;DHT22;10145;49.152;9.282;2023-05-07T06:35:17;15.80;99.90
19968;DHT22;10145;49.152;9.282;2023-05-07T06:37:43;16.10;99.90
19968;DHT22;10145;49.152;9.282;2023-05-07T06:40:09;16.30;99.90
19968;DHT22;10145;49.152;9.282;2023-05-07T06:42:36;16.50;99.90
19968;DHT22;10145;49.152;9.282;2023-05-07T06:45:02;16.70;99.90
19968;DHT22;10145;49.152;9.282;2023-05-07T06:47:28;16.90;99.90
19968;DHT22;10145;49.152;9.282;2023-05-07T06:49:53;16.90;99.90
19968;DHT22;10145;49.152;9.282;2023-05-07T06:52:19;16.90;99.90
19968;DHT22;10145;49.152;9.282;2023-05-07T06:54:44;16.90;99.90
19968;DHT22;10145;49.152;9.282;2023-05-07T06:57:10;17.10;99.90
19968;DHT22;10145;49.152;9.282;2023-05-07T06:59:35;17.00;99.90
19968;DHT22;10145;49.152;9.282;2023-05-07T07:02:01;17.10;99.90
19968;DHT22;10145;49.152;9.282;2023-05-07T07:04:27;17.10;99.90
19968;DHT22;10145;49.152;9.282;2023-05-07T07:06:54;17.10;99.90
19968;DHT22;10145;49.152;9.282;2023-05-07T07:09:19;17.10;99.90
19968;DHT22;10145;49.152;9.282;2023-05-07T07:11:45;17.10;99.90
19968;DHT22;10145;49.152;9.282;2023-05-07T07:14:11;17.20;99.90
19968;DHT22;10145;49.152;9.282;2023-05-07T07:16:36;17.30;99.90
19968;DHT22;10145;49.152;9.282;2023-05-07T07:19:02;17.40;99.90
19968;DHT22;10145;49.152;9.282;2023-05-07T07:21:27;17.60;99.90
19968;DHT22;10145;49.152;9.282;2023-05-07T07:23:53;17.90;99.90
19968;DHT22;10145;49.152;9.282;2023-05-07T07:26:18;18.20;99.90
19968;DHT22;10145;49.152;9.282;2023-05-07T07:28:45;18.40;99.90
19968;DHT22;10145;49.152;9.282;2023-05-07T07:31:11;18.50;99.90
19968;DHT22;10145;49.152;9.282;2023-05-07T07:33:36;18.50;99.90
19968;DHT22;10145;49.152;9.282;2023-05-07T07:36:02;18.70;99.90
19968;DHT22;10145;49.152;9.282;2023-05-07T07:38:27;18.80;99.90
19968;DHT22;10145;49.152;9.282;2023-05-07T07:40:53;18.90;99.90
19968;DHT22;10145;49.152;9.282;2023-05-07T07:43:19;19.00;99.90
19968;DHT22;10145;49.152;9.282;2023-05-07T07:45:44;19.20;99.90
19968;DHT22;10145;49.152;9.282;2023-05-07T07:48:20;19.60;99.90
19968;DHT22;10145;49.152;9.282;2023-05-07T07:50:48;19.80;99.90
19968;DHT22;10145;49.152;9.282;2023-05-07T07:53:14;19.60;99.90
19968;DHT22;10145;49.152;9.282;2023-05-07T07:55:40;19.30;99.90
19968;DHT22;10145;49.152;9.282;2023-05-07T07:58:06;19.20;99.90
19968;DHT22;10145;49.152;9.282;2023-05-07T08:00:31;19.40;99.90
19968;DHT22;10145;49.152;9.282;2023-05-07T08:02:57;19.80;99.90
19968;DHT22;10145;49.152;9.282;2023-05-07T08:05:23;20.10;99.90
19968;DHT22;10145;49.152;9.282;2023-05-07T08:07:48;20.40;99.90
19968;DHT22;10145;49.152;9.282;2023-05-07T08:10:18;20.60;99.90
19968;DHT22;10145;49.152;9.282;2023-05-07T08:12:48;20.50;99.90
19968;DHT22;10145;49.152;9.282;2023-05-07T08:15:15;20.80;99.90
19968;DHT22;10145;49.152;9.282;2023-05-07T08:17:41;21.20;99.90
19968;DHT22;10145;49.152;9.282;2023-05-07T08:20:07;21.50;99.90
19968;DHT22;10145;49.152;9.282;2023-05-07T08:22:35;21.70;99.90
19968;DHT22;10145;49.152;9.282;2023-05-07T08:25:00;21.90;99.90
19968;DHT22;10145;49.152;9.282;2023-05-07T08:27:26;22.20;99.90
19968;DHT22;10145;49.152;9.282;2023-05-07T08:29:52;22.10;99.90
19968;DHT22;10145;49.152;9.282;2023-05-07T08:32:17;22.20;99.90
19968;DHT22;10145;49.152;9.282;2023-05-07T08:34:43;22.40;99.80
19968;DHT22;10145;49.152;9.282;2023-05-07T08:37:08;22.40;99.90
19968;DHT22;10145;49.152;9.282;2023-05-07T08:39:34;22.50;99.90
19968;DHT22;10145;49.152;9.282;2023-05-07T08:42:00;22.20;99.90
19968;DHT22;10145;49.152;9.282;2023-05-07T08:44:28;22.20;99.90
19968;DHT22;10145;49.152;9.282;2023-05-07T08:46:58;22.00;99.90
19968;DHT22;10145;49.152;9.282;2023-05-07T08:49:26;22.10;99.90
19968;DHT22;10145;49.152;9.282;2023-05-07T08:51:52;22.20;99.90
19968;DHT22;10145;49.152;9.282;2023-05-07T08:54:18;22.30;99.90
19968;DHT22;10145;49.152;9.282;2023-05-07T08:56:45;22.30;99.90
19968;DHT22;10145;49.152;9.282;2023-05-07T08:59:11;22.30;99.90
19968;DHT22;10145;49.152;9.282;2023-05-07T09:01:36;22.30;99.90
19968;DHT22;10145;49.152;9.282;2023-05-07T09:04:02;22.40;99.90
19968;DHT22;10145;49.152;9.282;2023-05-07T09:06:28;22.50;99.90
19968;DHT22;10145;49.152;9.282;2023-05-07T09:08:54;22.00;99.40
19968;DHT22;10145;49.152;9.282;2023-05-07T09:11:21;22.20;99.90
19968;DHT22;10145;49.152;9.282;2023-05-07T09:13:48;22.40;99.90
19968;DHT22;10145;49.152;9.282;2023-05-07T09:16:14;22.40;99.30
19968;DHT22;10145;49.152;9.282;2023-05-07T09:18:41;22.40;98.50
19968;DHT22;10145;49.152;9.282;2023-05-07T09:21:10;22.60;99.50
19968;DHT22;10145;49.152;9.282;2023-05-07T09:23:36;22.60;99.20
19968;DHT22;10145;49.152;9.282;2023-05-07T09:26:01;23.10;99.60
19968;DHT22;10145;49.152;9.282;2023-05-07T09:28:27;23.30;96.00
19968;DHT22;10145;49.152;9.282;2023-05-07T09:30:53;23.30;97.30
19968;DHT22;10145;49.152;9.282;2023-05-07T09:33:18;23.40;97.10
19968;DHT22;10145;49.152;9.282;2023-05-07T09:35:44;23.40;97.10
19968;DHT22;10145;49.152;9.282;2023-05-07T09:38:10;23.40;96.30
19968;DHT22;10145;49.152;9.282;2023-05-07T09:40:35;23.10;96.60
19968;DHT22;10145;49.152;9.282;2023-05-07T09:43:11;23.30;95.60
19968;DHT22;10145;49.152;9.282;2023-05-07T09:45:38;23.30;95.40
19968;DHT22;10145;49.152;9.282;2023-05-07T09:48:05;23.30;96.90
19968;DHT22;10145;49.152;9.282;2023-05-07T09:50:45;23.50;96.30
19968;DHT22;10145;49.152;9.282;2023-05-07T09:53:14;23.60;95.10
19968;DHT22;10145;49.152;9.282;2023-05-07T09:55:41;23.60;94.20
19968;DHT22;10145;49.152;9.282;2023-05-07T09:58:07;23.90;95.50
19968;DHT22;10145;49.152;9.282;2023-05-07T10:00:33;24.00;94.60
19968;DHT22;10145;49.152;9.282;2023-05-07T10:03:00;24.20;94.00
19968;DHT22;10145;49.152;9.282;2023-05-07T10:05:27;24.50;93.60
19968;DHT22;10145;49.152;9.282;2023-05-07T10:07:53;24.60;93.30
19968;DHT22;10145;49.152;9.282;2023-05-07T10:10:19;24.50;92.60
19968;DHT22;10145;49.152;9.282;2023-05-07T10:12:45;24.70;92.30
19968;DHT22;10145;49.152;9.282;2023-05-07T10:15:12;24.70;91.20
19968;DHT22;10145;49.152;9.282;2023-05-07T10:17:39;24.90;88.80
19968;DHT22;10145;49.152;9.282;2023-05-07T10:20:05;25.00;86.10
19968;DHT22;10145;49.152;9.282;2023-05-07T10:22:43;25.50;87.10
19968;DHT22;10145;49.152;9.282;2023-05-07T10:25:18;25.80;86.70
19968;DHT22;10145;49.152;9.282;2023-05-07T10:27:47;26.40;77.70
19968;DHT22;10145;49.152;9.282;2023-05-07T10:30:26;26.60;87.50
19968;DHT22;10145;49.152;9.282;2023-05-07T10:32:56;26.40;80.00
19968;DHT22;10145;49.152;9.282;2023-05-07T10:35:32;26.40;78.20
19968;DHT22;10145;49.152;9.282;2023-05-07T10:38:01;26.30;79.40
19968;DHT22;10145;49.152;9.282;2023-05-07T10:40:27;26.00;80.80
19968;DHT22;10145;49.152;9.282;2023-05-07T10:42:57;25.90;80.60
19968;DHT22;10145;49.152;9.282;2023-05-07T10:45:25;26.00;77.40
19968;DHT22;10145;49.152;9.282;2023-05-07T10:48:15;25.40;80.70
19968;DHT22;10145;49.152;9.282;2023-05-07T10:50:43;24.90;80.80
19968;DHT22;10145;49.152;9.282;2023-05-07T10:55:44;25.20;82.50
19968;DHT22;10145;49.152;9.282;2023-05-07T10:58:29;25.40;82.50
19968;DHT22;10145;49.152;9.282;2023-05-07T11:00:59;25.30;81.10
19968;DHT22;10145;49.152;9.282;2023-05-07T11:03:26;25.20;83.00
19968;DHT22;10145;49.152;9.282;2023-05-07T11:06:11;25.10;83.20
19968;DHT22;10145;49.152;9.282;2023-05-07T11:11:20;25.20;79.10
19968;DHT22;10145;49.152;9.282;2023-05-07T11:14:05;24.90;81.70
19968;DHT22;10145;49.152;9.282;2023-05-07T11:16:31;24.80;81.10
19968;DHT22;10145;49.152;9.282;2023-05-07T11:18:58;24.50;81.70
19968;DHT22;10145;49.152;9.282;2023-05-07T11:21:38;24.40;81.70
19968;DHT22;10145;49.152;9.282;2023-05-07T11:24:06;24.50;82.90
19968;DHT22;10145;49.152;9.282;2023-05-07T11:27:04;24.80;79.30
19968;DHT22;10145;49.152;9.282;2023-05-07T11:29:30;24.80;79.10
19968;DHT22;10145;49.152;9.282;2023-05-07T11:31:56;24.90;81.50
19968;DHT22;10145;49.152;9.282;2023-05-07T11:34:24;24.90;80.20
19968;DHT22;10145;49.152;9.282;2023-05-07T11:36:51;24.90;82.00
19968;DHT22;10145;49.152;9.282;2023-05-07T11:39:27;25.00;83.20
19968;DHT22;10145;49.152;9.282;2023-05-07T11:41:53;25.10;79.80
19968;DHT22;10145;49.152;9.282;2023-05-07T11:44:18;25.10;79.10
19968;DHT22;10145;49.152;9.282;2023-05-07T11:46:44;24.80;79.60
19968;DHT22;10145;49.152;9.282;2023-05-07T11:49:10;24.70;80.50
19968;DHT22;10145;49.152;9.282;2023-05-07T11:51:36;24.80;79.40
19968;DHT22;10145;49.152;9.282;2023-05-07T11:54:04;25.20;80.00
19968;DHT22;10145;49.152;9.282;2023-05-07T11:56:34;25.60;76.70
19968;DHT22;10145;49.152;9.282;2023-05-07T11:59:00;25.70;78.10
19968;DHT22;10145;49.152;9.282;2023-05-07T12:01:26;25.60;77.00
19968;DHT22;10145;49.152;9.282;2023-05-07T12:03:51;25.40;77.00
19968;DHT22;10145;49.152;9.282;2023-05-07T12:06:18;25.30;78.90
19968;DHT22;10145;49.152;9.282;2023-05-07T12:08:45;25.90;82.20
19968;DHT22;10145;49.152;9.282;2023-05-07T12:11:18;25.70;77.90
19968;DHT22;10145;49.152;9.282;2023-05-07T12:13:47;25.30;76.70
19968;DHT22;10145;49.152;9.282;2023-05-07T12:16:12;25.50;81.40
19968;DHT22;10145;49.152;9.282;2023-05-07T12:18:38;26.10;81.00
19968;DHT22;10145;49.152;9.282;2023-05-07T12:21:05;26.80;77.80
19968;DHT22;10145;49.152;9.282;2023-05-07T12:23:32;27.30;73.10
19968;DHT22;10145;49.152;9.282;2023-05-07T12:25:59;27.80;76.20
19968;DHT22;10145;49.152;9.282;2023-05-07T12:28:25;27.90;71.00
19968;DHT22;10145;49.152;9.282;2023-05-07T12:30:51;27.80;73.50
19968;DHT22;10145;49.152;9.282;2023-05-07T12:33:19;27.80;74.50
19968;DHT22;10145;49.152;9.282;2023-05-07T12:35:48;28.30;73.70
19968;DHT22;10145;49.152;9.282;2023-05-07T12:38:15;28.70;70.10
19968;DHT22;10145;49.152;9.282;2023-05-07T12:40:44;28.50;71.10
19968;DHT22;10145;49.152;9.282;2023-05-07T12:43:41;28.30;71.10
19968;DHT22;10145;49.152;9.282;2023-05-07T12:46:09;28.40;71.10
19968;DHT22;10145;49.152;9.282;2023-05-07T12:48:37;28.50;73.80
19968;DHT22;10145;49.152;9.282;2023-05-07T12:51:03;28.20;69.90
19968;DHT22;10145;49.152;9.282;2023-05-07T12:53:33;28.00;71.30
19968;DHT22;10145;49.152;9.282;2023-05-07T12:56:05;27.80;71.10
19968;DHT22;10145;49.152;9.282;2023-05-07T12:58:33;27.80;70.10
19968;DHT22;10145;49.152;9.282;2023-05-07T13:01:01;27.60;72.20
19968;DHT22;10145;49.152;9.282;2023-05-07T13:03:29;27.40;70.20
19968;DHT22;10145;49.152;9.282;2023-05-07T13:05:57;27.30;72.10
19968;DHT22;10145;49.152;9.282;2023-05-07T13:08:33;27.30;73.00
19968;DHT22;10145;49.152;9.282;2023-05-07T13:11:00;26.80;72.50
19968;DHT22;10145;49.152;9.282;2023-05-07T13:13:33;26.60;71.40
19968;DHT22;10145;49.152;9.282;2023-05-07T13:16:00;26.10;70.30
19968;DHT22;10145;49.152;9.282;2023-05-07T13:18:26;26.10;73.10
19968;DHT22;10145;49.152;9.282;2023-05-07T13:20:52;26.20;73.10
19968;DHT22;10145;49.152;9.282;2023-05-07T13:23:18;26.20;76.10
19968;DHT22;10145;49.152;9.282;2023-05-07T13:25:44;26.00;73.50
19968;DHT22;10145;49.152;9.282;2023-05-07T13:28:09;26.00;72.20
19968;DHT22;10145;49.152;9.282;2023-05-07T13:30:35;26.00;75.00
19968;DHT22;10145;49.152;9.282;2023-05-07T13:33:01;25.90;73.00
19968;DHT22;10145;49.152;9.282;2023-05-07T13:35:26;25.70;75.30
19968;DHT22;10145;49.152;9.282;2023-05-07T13:37:52;25.70;74.20
19968;DHT22;10145;49.152;9.282;2023-05-07T13:40:18;25.70;75.10
19968;DHT22;10145;49.152;9.282;2023-05-07T13:42:44;25.70;77.00
19968;DHT22;10145;49.152;9.282;2023-05-07T13:45:10;25.70;78.80
19968;DHT22;10145;49.152;9.282;2023-05-07T13:47:36;25.50;78.20
19968;DHT22;10145;49.152;9.282;2023-05-07T13:50:01;25.30;77.50
19968;DHT22;10145;49.152;9.282;2023-05-07T13:52:27;25.30;77.50
19968;DHT22;10145;49.152;9.282;2023-05-07T13:54:52;25.10;75.80
19968;DHT22;10145;49.152;9.282;2023-05-07T13:57:18;24.70;77.10
19968;DHT22;10145;49.152;9.282;2023-05-07T13:59:44;24.40;79.20
19968;DHT22;10145;49.152;9.282;2023-05-07T14:02:09;24.30;79.20
19968;DHT22;10145;49.152;9.282;2023-05-07T14:04:35;24.10;81.10
19968;DHT22;10145;49.152;9.282;2023-05-07T14:07:01;23.70;83.30
19968;DHT22;10145;49.152;9.282;2023-05-07T14:09:26;23.60;82.10
19968;DHT22;10145;49.152;9.282;2023-05-07T14:11:52;23.40;84.00
19968;DHT22;10145;49.152;9.282;2023-05-07T14:14:18;23.10;84.70
19968;DHT22;10145;49.152;9.282;2023-05-07T14:16:44;22.70;95.30
19968;DHT22;10145;49.152;9.282;2023-05-07T14:19:13;21.00;99.90
19968;DHT22;10145;49.152;9.282;2023-05-07T14:21:38;19.50;99.90
19968;DHT22;10145;49.152;9.282;2023-05-07T14:24:06;18.40;99.90
19968;DHT22;10145;49.152;9.282;2023-05-07T14:26:32;17.70;99.90
19968;DHT22;10145;49.152;9.282;2023-05-07T14:28:59;17.20;99.90
19968;DHT22;10145;49.152;9.282;2023-05-07T14:31:24;17.00;99.90
19968;DHT22;10145;49.152;9.282;2023-05-07T14:33:50;16.80;99.90
19968;DHT22;10145;49.152;9.282;2023-05-07T14:36:17;16.70;99.90
19968;DHT22;10145;49.152;9.282;2023-05-07T14:38:43;16.30;99.90
19968;DHT22;10145;49.152;9.282;2023-05-07T14:41:08;16.20;99.90
19968;DHT22;10145;49.152;9.282;2023-05-07T14:43:34;16.20;99.90
19968;DHT22;10145;49.152;9.282;2023-05-07T14:45:59;16.10;99.90
19968;DHT22;10145;49.152;9.282;2023-05-07T14:48:25;16.00;99.90
19968;DHT22;10145;49.152;9.282;2023-05-07T14:50:51;16.00;99.90
19968;DHT22;10145;49.152;9.282;2023-05-07T14:53:16;15.90;99.90
19968;DHT22;10145;49.152;9.282;2023-05-07T14:55:42;15.80;99.90
19968;DHT22;10145;49.152;9.282;2023-05-07T14:58:07;15.70;99.90
19968;DHT22;10145;49.152;9.282;2023-05-07T15:00:33;15.60;99.90
19968;DHT22;10145;49.152;9.282;2023-05-07T15:03:06;15.50;99.90
19968;DHT22;10145;49.152;9.282;2023-05-07T15:05:32;15.50;99.90
19968;DHT22;10145;49.152;9.282;2023-05-07T15:07:58;15.40;99.90
19968;DHT22;10145;49.152;9.282;2023-05-07T15:10:24;15.40;99.90
19968;DHT22;10145;49.152;9.282;2023-05-07T15:12:49;15.30;99.90
19968;DHT22;10145;49.152;9.282;2023-05-07T15:15:15;15.40;99.90
19968;DHT22;10145;49.152;9.282;2023-05-07T15:17:40;15.30;99.90
19968;DHT22;10145;49.152;9.282;2023-05-07T15:20:07;15.30;99.90
19968;DHT22;10145;49.152;9.282;2023-05-07T15:22:33;15.30;99.90
19968;DHT22;10145;49.152;9.282;2023-05-07T15:24:59;15.30;99.90
19968;DHT22;10145;49.152;9.282;2023-05-07T15:27:25;15.20;99.90
19968;DHT22;10145;49.152;9.282;2023-05-07T15:29:51;15.40;99.90
19968;DHT22;10145;49.152;9.282;2023-05-07T15:32:17;15.30;99.90